Time;durP1;ratioP1;P1;durP2;ratioP2;P2;SDS_P1;SDS_P2;PMS_P1;PMS_P2;Temp;Humidity;BMP_temperature;BMP_pressure;BME280_temperature;BME280_humidity;BME280_pressure;Samples;Min_cycle;Max_cycle;Signal;HPM_P1;HPM_P2
2021/09/02 00:02:10;;;;;;;8.73;7.67;;;16.10;99.90;;;;;;5014120;28;20488;-51
2021/09/02 00:04:38;;;;;;;11.30;7.80;;;16.10;99.90;;;;;;5014503;28;20519;-53
2021/09/02 00:07:05;;;;;;;10.63;8.03;;;16.10;99.90;;;;;;5014292;28;20535;-55
2021/09/02 00:09:32;;;;;;;12.53;8.37;;;16.20;99.90;;;;;;5014034;28;20448;-52
2021/09/02 00:12:01;;;;;;;10.47;7.30;;;16.20;99.90;;;;;;5014195;28;20484;-50
2021/09/02 00:14:27;;;;;;;10.50;8.57;;;16.20;99.90;;;;;;5014032;28;20464;-51
2021/09/02 00:16:55;;;;;;;11.90;8.57;;;16.20;99.90;;;;;;5013315;28;20452;-51
2021/09/02 00:19:21;;;;;;;12.50;9.40;;;16.20;99.90;;;;;;5014352;28;20457;-54
2021/09/02 00:21:49;;;;;;;9.60;7.30;;;16.20;99.90;;;;;;5014157;28;20453;-49
2021/09/02 00:24:16;;;;;;;11.87;9.40;;;16.20;99.90;;;;;;5014387;28;20519;-52
2021/09/02 00:26:43;;;;;;;12.60;8.10;;;16.20;99.90;;;;;;5006685;28;20852;-50
2021/09/02 00:29:10;;;;;;;10.60;7.83;;;16.20;99.90;;;;;;5013950;28;20441;-53
2021/09/02 00:31:36;;;;;;;10.37;8.43;;;16.20;99.90;;;;;;5013927;28;20453;-52
2021/09/02 00:34:03;;;;;;;13.30;8.30;;;16.20;99.90;;;;;;5014126;28;20453;-48
2021/09/02 00:36:32;;;;;;;12.50;8.20;;;16.30;99.90;;;;;;5014163;28;20472;-53
2021/09/02 00:39:00;;;;;;;10.17;8.33;;;16.20;99.90;;;;;;5013734;28;20479;-52
2021/09/02 00:41:26;;;;;;;9.43;7.80;;;16.20;99.90;;;;;;5013796;28;20522;-53
2021/09/02 00:43:53;;;;;;;10.60;9.17;;;16.30;99.90;;;;;;5013774;28;20547;-52
2021/09/02 00:46:20;;;;;;;10.53;8.30;;;16.20;99.90;;;;;;5014002;28;20449;-47
2021/09/02 00:48:48;;;;;;;13.60;8.70;;;16.20;99.90;;;;;;5013973;28;20460;-52
2021/09/02 00:51:17;;;;;;;13.43;9.27;;;16.20;99.90;;;;;;5013868;28;20504;-54
2021/09/02 00:53:44;;;;;;;12.10;8.50;;;16.20;99.90;;;;;;5014034;28;20451;-52
2021/09/02 00:56:13;;;;;;;10.70;8.17;;;16.20;99.90;;;;;;5013698;28;20814;-53
2021/09/02 00:58:40;;;;;;;10.80;7.20;;;16.30;99.90;;;;;;5013833;28;20449;-49
2021/09/02 01:01:07;;;;;;;9.97;8.50;;;16.30;99.90;;;;;;5013977;28;20453;-51
2021/09/02 01:03:36;;;;;;;12.30;7.63;;;16.30;99.90;;;;;;5013713;28;20496;-50
2021/09/02 01:06:04;;;;;;;12.93;8.03;;;16.30;99.90;;;;;;5013936;28;20572;-47
2021/09/02 01:08:31;;;;;;;9.73;8.13;;;16.30;99.90;;;;;;5013608;28;20834;-51
2021/09/02 01:10:57;;;;;;;9.17;7.57;;;16.30;99.90;;;;;;5013813;28;20829;-50
2021/09/02 01:13:25;;;;;;;11.30;7.53;;;16.30;99.90;;;;;;5013810;28;20448;-48
2021/09/02 01:15:53;;;;;;;8.40;7.20;;;16.30;99.90;;;;;;5013535;28;20913;-48
2021/09/02 01:18:20;;;;;;;10.67;7.33;;;16.40;99.90;;;;;;5013820;28;20457;-54
2021/09/02 01:20:47;;;;;;;9.80;7.77;;;16.40;99.90;;;;;;5013596;28;20445;-54
2021/09/02 01:23:21;;;;;;;8.40;6.90;;;16.30;99.90;;;;;;5013657;28;20572;-51
2021/09/02 01:25:49;;;;;;;10.03;7.33;;;16.30;99.90;;;;;;5013746;28;20519;-49
2021/09/02 01:28:16;;;;;;;11.60;7.83;;;16.30;99.90;;;;;;5015100;28;20932;-53
2021/09/02 01:30:44;;;;;;;8.53;7.17;;;16.30;99.90;;;;;;5009148;28;20452;-50
2021/09/02 01:33:13;;;;;;;10.10;7.10;;;16.30;99.90;;;;;;5016943;28;20449;-49
2021/09/02 01:35:39;;;;;;;10.30;8.50;;;16.30;99.90;;;;;;5017398;28;20837;-54
2021/09/02 01:38:11;;;;;;;9.73;7.63;;;16.30;99.90;;;;;;5017100;28;20445;-53
2021/09/02 01:40:41;;;;;;;10.60;6.90;;;16.20;99.90;;;;;;5016813;28;20448;-52
2021/09/02 01:43:11;;;;;;;12.20;8.03;;;16.20;99.90;;;;;;5017049;28;20464;-49
2021/09/02 01:45:39;;;;;;;9.50;8.20;;;16.20;99.90;;;;;;5016910;28;20535;-49
2021/09/02 01:48:06;;;;;;;8.20;6.93;;;16.20;99.90;;;;;;5017051;28;20464;-51
2021/09/02 01:50:36;;;;;;;12.87;6.97;;;16.20;99.90;;;;;;5016890;28;20453;-49
2021/09/02 01:53:06;;;;;;;10.07;7.53;;;16.20;99.90;;;;;;5016815;28;20465;-51
2021/09/02 01:55:33;;;;;;;8.13;7.17;;;16.20;99.90;;;;;;5016883;28;20527;-51
2021/09/02 01:58:02;;;;;;;8.57;7.60;;;16.20;99.90;;;;;;5016615;28;20475;-47
2021/09/02 02:00:28;;;;;;;10.40;7.90;;;16.20;99.90;;;;;;5016743;28;20514;-51
2021/09/02 02:02:55;;;;;;;9.40;8.10;;;16.30;99.90;;;;;;5016057;28;20481;-54
2021/09/02 02:05:22;;;;;;;8.90;7.23;;;16.30;99.90;;;;;;5016567;28;20906;-51
2021/09/02 02:07:49;;;;;;;9.97;7.57;;;16.30;99.90;;;;;;5016687;28;20587;-51
2021/09/02 02:10:18;;;;;;;11.47;7.67;;;16.30;99.90;;;;;;5016393;28;20468;-54
2021/09/02 02:12:45;;;;;;;8.93;7.20;;;16.30;99.90;;;;;;5016261;28;20962;-51
2021/09/02 02:15:14;;;;;;;13.13;8.10;;;16.30;99.90;;;;;;5016318;28;20444;-53
2021/09/02 02:17:42;;;;;;;11.70;8.50;;;16.30;99.90;;;;;;5016412;28;20749;-47
2021/09/02 02:20:10;;;;;;;14.40;8.37;;;16.30;99.90;;;;;;5016423;28;20476;-49
2021/09/02 02:22:37;;;;;;;11.53;7.70;;;16.30;99.90;;;;;;5015940;28;20456;-51
2021/09/02 02:25:04;;;;;;;10.57;8.07;;;16.20;99.90;;;;;;5016121;28;20878;-53
2021/09/02 02:27:31;;;;;;;9.97;8.30;;;16.20;99.90;;;;;;5015950;28;20507;-54
2021/09/02 02:29:58;;;;;;;10.00;8.60;;;16.20;99.90;;;;;;5016192;28;20484;-54
2021/09/02 02:32:26;;;;;;;10.50;8.50;;;16.20;99.90;;;;;;5015886;28;20580;-51
2021/09/02 02:34:53;;;;;;;13.00;8.37;;;16.10;99.90;;;;;;5016026;28;20499;-54
2021/09/02 02:37:19;;;;;;;10.90;8.20;;;16.10;99.90;;;;;;5015822;28;20449;-52
2021/09/02 02:39:46;;;;;;;9.40;7.87;;;16.10;99.90;;;;;;5014714;28;20480;-49
2021/09/02 02:42:13;;;;;;;9.50;7.57;;;16.10;99.90;;;;;;5015980;28;20457;-49
2021/09/02 02:44:39;;;;;;;11.17;7.37;;;16.00;99.90;;;;;;5016014;28;20469;-50
2021/09/02 02:47:07;;;;;;;10.23;7.93;;;16.00;99.90;;;;;;5016130;28;20530;-51
2021/09/02 02:49:36;;;;;;;10.57;8.23;;;16.00;99.90;;;;;;5015826;28;20503;-51
2021/09/02 02:52:03;;;;;;;10.07;7.60;;;16.00;99.90;;;;;;5015810;28;20480;-52
2021/09/02 02:54:32;;;;;;;9.67;7.57;;;15.90;99.90;;;;;;5015716;28;20445;-51
2021/09/02 02:56:59;;;;;;;9.60;7.93;;;16.00;99.90;;;;;;5015444;28;20441;-51
2021/09/02 02:59:25;;;;;;;10.30;7.40;;;15.90;99.90;;;;;;5015669;28;20524;-51
2021/09/02 03:01:52;;;;;;;10.17;7.50;;;15.90;99.90;;;;;;5015670;28;20441;-48
2021/09/02 03:04:18;;;;;;;8.47;7.13;;;15.90;99.90;;;;;;5015357;28;20791;-50
2021/09/02 03:06:46;;;;;;;14.00;6.80;;;15.80;99.90;;;;;;5015510;28;20445;-50
2021/09/02 03:09:13;;;;;;;14.60;8.97;;;15.80;99.90;;;;;;5015445;28;20520;-51
2021/09/02 03:11:40;;;;;;;9.67;7.30;;;15.80;99.90;;;;;;5015463;28;20761;-47
2021/09/02 03:14:06;;;;;;;9.17;7.17;;;15.70;99.90;;;;;;5015426;28;20445;-48
2021/09/02 03:16:33;;;;;;;9.57;7.23;;;15.70;99.90;;;;;;5015369;28;21025;-50
2021/09/02 03:19:00;;;;;;;8.93;7.10;;;15.70;99.90;;;;;;5015311;28;20499;-48
2021/09/02 03:21:26;;;;;;;9.37;6.70;;;15.70;99.90;;;;;;5015065;28;20441;-48
2021/09/02 03:23:55;;;;;;;8.60;7.70;;;15.60;99.90;;;;;;5015182;28;20819;-48
2021/09/02 03:26:21;;;;;;;12.30;8.53;;;15.60;99.90;;;;;;5014733;28;20457;-48
2021/09/02 03:28:48;;;;;;;10.90;7.40;;;15.60;99.90;;;;;;5015394;28;20441;-48
2021/09/02 03:31:14;;;;;;;11.40;7.97;;;15.60;99.90;;;;;;5014995;28;20516;-52
2021/09/02 03:33:41;;;;;;;9.63;7.60;;;15.60;99.90;;;;;;5014883;28;20489;-52
2021/09/02 03:36:08;;;;;;;11.60;7.57;;;15.60;99.90;;;;;;5014708;28;20457;-50
2021/09/02 03:38:34;;;;;;;11.63;7.17;;;15.60;99.90;;;;;;5014580;28;20861;-49
2021/09/02 03:41:02;;;;;;;10.53;7.40;;;15.60;99.90;;;;;;5014894;28;20445;-52
2021/09/02 03:43:29;;;;;;;9.73;7.00;;;15.70;99.90;;;;;;5014960;28;20551;-54
2021/09/02 03:45:56;;;;;;;9.47;7.20;;;15.60;99.90;;;;;;5014925;28;20522;-52
2021/09/02 03:48:22;;;;;;;10.37;8.17;;;15.70;99.90;;;;;;5014881;28;20460;-51
2021/09/02 03:50:49;;;;;;;11.80;8.07;;;15.60;99.90;;;;;;5014476;28;20518;-52
2021/09/02 03:53:15;;;;;;;10.13;6.97;;;15.70;99.90;;;;;;5014792;28;20499;-55
2021/09/02 03:55:42;;;;;;;10.83;7.17;;;15.70;99.90;;;;;;5014347;28;20984;-51
2021/09/02 03:58:10;;;;;;;10.70;7.43;;;15.70;99.90;;;;;;5014566;28;20453;-54
2021/09/02 04:00:38;;;;;;;9.80;7.33;;;15.70;99.90;;;;;;5014636;28;20511;-53
2021/09/02 04:03:05;;;;;;;10.37;7.73;;;15.70;99.90;;;;;;5013976;28;20469;-54
2021/09/02 04:05:31;;;;;;;10.90;8.33;;;15.70;99.90;;;;;;5014606;28;20834;-53
2021/09/02 04:07:58;;;;;;;9.60;7.57;;;15.70;99.90;;;;;;5014245;28;20839;-50
2021/09/02 04:10:25;;;;;;;10.90;8.13;;;15.70;99.90;;;;;;5014523;28;20441;-48
2021/09/02 04:12:51;;;;;;;12.50;7.33;;;15.60;99.90;;;;;;5014142;28;20453;-48
2021/09/02 04:15:20;;;;;;;11.03;8.07;;;15.60;99.90;;;;;;5014118;28;20518;-52
2021/09/02 04:17:46;;;;;;;13.60;7.97;;;15.60;99.90;;;;;;5014140;28;20452;-53
2021/09/02 04:20:13;;;;;;;12.33;8.57;;;15.60;99.90;;;;;;5014099;28;20544;-51
2021/09/02 04:22:40;;;;;;;11.90;9.17;;;15.60;99.90;;;;;;5014046;28;20918;-51
2021/09/02 04:25:08;;;;;;;8.93;7.20;;;15.60;99.90;;;;;;5014189;28;20480;-49
2021/09/02 04:27:34;;;;;;;12.73;7.57;;;15.60;99.90;;;;;;5014186;28;20507;-47
2021/09/02 04:30:01;;;;;;;10.20;7.63;;;15.60;99.90;;;;;;5014154;28;20449;-48
2021/09/02 04:32:29;;;;;;;11.03;8.13;;;15.60;99.90;;;;;;5014021;28;20885;-47
2021/09/02 04:34:55;;;;;;;9.47;7.70;;;15.60;99.90;;;;;;5014226;28;20503;-48
2021/09/02 04:37:22;;;;;;;13.10;9.00;;;15.60;99.90;;;;;;5013811;28;20469;-47
2021/09/02 04:39:49;;;;;;;12.30;8.40;;;15.60;99.90;;;;;;5013764;28;20477;-52
2021/09/02 04:42:15;;;;;;;16.23;8.87;;;15.60;99.90;;;;;;5014116;28;20854;-49
2021/09/02 04:44:42;;;;;;;11.13;7.60;;;15.60;99.90;;;;;;5013727;28;20492;-48
2021/09/02 04:47:09;;;;;;;11.83;8.10;;;15.50;99.90;;;;;;5014191;28;20445;-53
2021/09/02 04:49:37;;;;;;;10.17;7.97;;;15.50;99.90;;;;;;5013754;28;20457;-54
2021/09/02 04:52:04;;;;;;;10.43;7.80;;;15.50;99.90;;;;;;5014173;28;20968;-53
2021/09/02 04:54:31;;;;;;;12.03;8.17;;;15.50;99.90;;;;;;5015972;28;20511;-53
2021/09/02 04:56:57;;;;;;;12.70;8.77;;;15.50;99.90;;;;;;5016900;28;20515;-54
2021/09/02 04:59:24;;;;;;;11.53;7.23;;;15.40;99.90;;;;;;5014530;28;20445;-53
2021/09/02 05:01:50;;;;;;;12.23;8.47;;;15.40;99.90;;;;;;5014558;28;20507;-52
2021/09/02 05:04:17;;;;;;;13.50;9.10;;;15.40;99.90;;;;;;5017578;28;20476;-53
2021/09/02 05:06:45;;;;;;;10.97;8.30;;;15.40;99.90;;;;;;5018473;28;20516;-53
2021/09/02 05:09:12;;;;;;;11.30;7.33;;;15.30;99.90;;;;;;5017606;28;20445;-54
2021/09/02 05:11:38;;;;;;;11.87;8.97;;;15.30;99.90;;;;;;5017704;28;20457;-52
2021/09/02 05:14:07;;;;;;;14.10;8.73;;;15.40;99.90;;;;;;5017507;28;20452;-51
2021/09/02 05:16:34;;;;;;;13.40;8.70;;;15.40;99.90;;;;;;5017389;28;20441;-51
2021/09/02 05:19:00;;;;;;;11.20;8.10;;;15.40;99.90;;;;;;5017106;28;20461;-48
2021/09/02 05:21:27;;;;;;;10.20;7.00;;;15.40;99.90;;;;;;5017459;28;20507;-45
2021/09/02 05:23:55;;;;;;;9.00;7.67;;;15.40;99.90;;;;;;5017414;28;20476;-45
2021/09/02 05:26:22;;;;;;;9.60;7.57;;;15.50;99.90;;;;;;5017480;28;20510;-49
2021/09/02 05:28:49;;;;;;;11.80;8.20;;;15.50;99.90;;;;;;5017649;28;20475;-46
2021/09/02 05:31:15;;;;;;;10.60;8.90;;;15.50;99.90;;;;;;5017315;28;20449;-47
2021/09/02 05:33:42;;;;;;;11.83;8.50;;;15.60;99.90;;;;;;5017559;28;20441;-51
2021/09/02 05:36:09;;;;;;;19.23;9.00;;;15.60;99.90;;;;;;5018417;28;20453;-46
2021/09/02 05:38:36;;;;;;;15.90;9.70;;;15.60;99.90;;;;;;5018127;28;20539;-47
2021/09/02 05:41:04;;;;;;;10.47;7.50;;;15.60;99.90;;;;;;5019043;28;20476;-45
2021/09/02 05:43:31;;;;;;;15.23;9.03;;;15.60;99.90;;;;;;5018271;28;20445;-49
2021/09/02 05:45:58;;;;;;;11.70;8.50;;;15.60;99.90;;;;;;5018326;28;20467;-47
2021/09/02 05:48:25;;;;;;;14.23;8.77;;;15.70;99.90;;;;;;5017951;28;20453;-49
2021/09/02 05:50:52;;;;;;;14.10;8.60;;;15.70;99.90;;;;;;5018122;28;20449;-48
2021/09/02 05:53:19;;;;;;;15.33;10.13;;;15.70;99.90;;;;;;5017108;28;20457;-47
2021/09/02 05:55:48;;;;;;;12.93;8.47;;;15.80;99.90;;;;;;5016835;28;20511;-46
2021/09/02 05:58:16;;;;;;;11.60;8.60;;;15.80;99.90;;;;;;5016808;28;20453;-51
2021/09/02 06:00:43;;;;;;;14.23;8.93;;;16.00;99.90;;;;;;5017996;28;20511;-47
2021/09/02 06:03:09;;;;;;;12.47;8.17;;;16.00;99.90;;;;;;5017857;28;20495;-48
2021/09/02 06:05:36;;;;;;;14.90;8.70;;;16.00;99.90;;;;;;5026083;28;20480;-47
2021/09/02 06:08:03;;;;;;;11.97;8.30;;;16.00;99.90;;;;;;5018164;28;20441;-47
2021/09/02 06:10:31;;;;;;;14.57;9.83;;;16.10;99.90;;;;;;5045633;28;20467;-51
2021/09/02 06:13:00;;;;;;;12.80;9.57;;;16.10;99.90;;;;;;5045323;28;20448;-50
2021/09/02 06:15:32;;;;;;;11.43;8.07;;;16.20;99.90;;;;;;5045330;28;20422;-47
2021/09/02 06:18:03;;;;;;;11.70;8.57;;;16.20;99.90;;;;;;5032229;28;20461;-47
2021/09/02 06:20:29;;;;;;;10.90;7.83;;;16.20;99.90;;;;;;5030701;28;20468;-46
2021/09/02 06:22:56;;;;;;;10.70;7.93;;;16.30;99.90;;;;;;5030534;28;20781;-52
2021/09/02 06:25:23;;;;;;;10.20;7.80;;;16.40;99.90;;;;;;5038570;28;20476;-49
2021/09/02 06:27:51;;;;;;;11.43;7.97;;;16.50;99.90;;;;;;5037917;28;20437;-51
2021/09/02 06:30:18;;;;;;;19.37;9.70;;;16.50;99.90;;;;;;5050148;28;20479;-51
2021/09/02 06:32:45;;;;;;;15.37;9.30;;;16.50;99.90;;;;;;5048634;28;20452;-50
2021/09/02 06:35:12;;;;;;;12.40;8.77;;;16.60;99.90;;;;;;5046317;28;20441;-49
2021/09/02 06:37:39;;;;;;;10.20;7.40;;;16.60;99.90;;;;;;5037912;28;20441;-48
2021/09/02 06:40:07;;;;;;;10.80;8.17;;;16.60;99.90;;;;;;5040379;28;20457;-48
2021/09/02 06:42:34;;;;;;;14.00;9.77;;;16.60;99.90;;;;;;5033119;28;20437;-48
2021/09/02 06:45:01;;;;;;;13.40;9.53;;;16.60;99.90;;;;;;5034476;28;20480;-47
2021/09/02 06:47:28;;;;;;;12.23;9.40;;;16.70;99.90;;;;;;5034122;28;20472;-48
2021/09/02 06:49:56;;;;;;;16.23;9.07;;;16.80;99.90;;;;;;5028960;28;20512;-49
2021/09/02 06:52:22;;;;;;;14.70;9.00;;;16.90;99.90;;;;;;5043172;28;20510;-45
2021/09/02 06:54:50;;;;;;;10.60;8.97;;;17.00;99.90;;;;;;5048093;28;20448;-49
2021/09/02 06:57:16;;;;;;;13.87;8.93;;;17.00;99.90;;;;;;5048517;28;20444;-47
2021/09/02 06:59:43;;;;;;;14.73;7.80;;;17.10;99.90;;;;;;5048704;28;20440;-50
2021/09/02 07:02:10;;;;;;;25.70;10.20;;;17.20;99.90;;;;;;5048373;28;20443;-54
2021/09/02 07:04:38;;;;;;;10.97;8.80;;;17.30;99.90;;;;;;5047167;28;20506;-52
2021/09/02 07:07:07;;;;;;;12.70;8.43;;;17.40;99.90;;;;;;5036704;28;20471;-52
2021/09/02 07:09:36;;;;;;;10.17;8.13;;;17.60;99.90;;;;;;5044592;28;20486;-51
2021/09/02 07:12:04;;;;;;;12.77;7.50;;;17.70;99.90;;;;;;5055468;28;20448;-51
2021/09/02 07:14:30;;;;;;;12.30;8.20;;;18.00;99.90;;;;;;5055613;28;20436;-48
2021/09/02 07:16:57;;;;;;;12.87;8.27;;;18.20;99.90;;;;;;5055344;28;20452;-53
2021/09/02 07:19:27;;;;;;;9.93;7.47;;;18.30;99.90;;;;;;5055179;28;20836;-51
2021/09/02 07:21:55;;;;;;;13.10;6.97;;;18.40;99.90;;;;;;5055149;28;20436;-49
2021/09/02 07:24:29;;;;;;;10.57;6.90;;;18.40;99.90;;;;;;5033631;28;20496;-49
2021/09/02 07:26:56;;;;;;;8.47;7.17;;;18.40;99.90;;;;;;5037076;28;20453;-48
2021/09/02 07:29:23;;;;;;;11.73;7.80;;;18.40;99.90;;;;;;5051298;28;20432;-49
2021/09/02 07:31:50;;;;;;;12.97;7.80;;;18.40;99.90;;;;;;5043131;28;20627;-52
2021/09/02 07:34:17;;;;;;;9.40;7.40;;;18.40;99.90;;;;;;5054822;28;20448;-48
2021/09/02 07:36:43;;;;;;;10.70;7.50;;;18.50;99.90;;;;;;5054875;28;20445;-52
2021/09/02 07:39:11;;;;;;;8.30;7.13;;;18.60;99.90;;;;;;5046388;28;20476;-52
2021/09/02 07:41:41;;;;;;;11.00;7.80;;;18.60;99.90;;;;;;5043392;28;20463;-52
2021/09/02 07:44:08;;;;;;;9.20;7.10;;;18.60;99.90;;;;;;5037133;28;20492;-51
2021/09/02 07:46:38;;;;;;;12.30;6.83;;;18.70;99.90;;;;;;5038560;28;20474;-50
2021/09/02 07:49:06;;;;;;;11.47;8.07;;;18.70;99.90;;;;;;5045838;28;20440;-47
2021/09/02 07:51:32;;;;;;;15.07;8.00;;;18.80;99.90;;;;;;5039583;28;20515;-50
2021/09/02 07:53:59;;;;;;;9.33;7.03;;;18.90;99.90;;;;;;5041359;28;20424;-48
2021/09/02 07:56:26;;;;;;;13.00;7.07;;;18.90;99.90;;;;;;5051287;28;20440;-50
2021/09/02 07:58:55;;;;;;;15.60;8.30;;;19.10;99.90;;;;;;5052788;28;20452;-51
2021/09/02 08:01:23;;;;;;;8.03;6.73;;;19.30;99.90;;;;;;5032786;28;20477;-46
2021/09/02 08:03:50;;;;;;;9.63;7.20;;;19.50;99.90;;;;;;5032596;28;20532;-48
2021/09/02 08:06:17;;;;;;;11.60;6.67;;;19.80;99.90;;;;;;5031636;28;20505;-48
2021/09/02 08:08:44;;;;;;;8.83;7.37;;;20.40;99.90;;;;;;5032492;28;20476;-48
2021/09/02 08:11:10;;;;;;;11.40;6.90;;;21.70;99.90;;;;;;5038899;28;20452;-46
2021/09/02 08:13:38;;;;;;;8.90;7.90;;;23.20;99.90;;;;;;5030954;28;20452;-49
2021/09/02 08:16:06;;;;;;;11.43;7.03;;;24.40;99.90;;;;;;5023275;28;20429;-47
2021/09/02 08:18:33;;;;;;;13.70;8.10;;;25.60;99.90;;;;;;5027122;28;20730;-48
2021/09/02 08:21:00;;;;;;;8.93;7.60;;;26.30;99.90;;;;;;5025257;28;20449;-48
2021/09/02 08:23:27;;;;;;;9.77;6.50;;;26.70;99.90;;;;;;5034249;28;21182;-46
2021/09/02 08:25:54;;;;;;;9.57;6.40;;;27.00;99.90;;;;;;5022019;28;20476;-49
2021/09/02 08:28:20;;;;;;;6.80;5.90;;;27.30;99.90;;;;;;5031528;28;20845;-47
2021/09/02 08:30:47;;;;;;;8.40;7.50;;;27.90;99.30;;;;;;5037948;28;20448;-47
2021/09/02 08:33:17;;;;;;;8.00;7.20;;;28.10;96.80;;;;;;5022679;28;20465;-48
2021/09/02 08:35:44;;;;;;;7.70;6.97;;;28.30;95.60;;;;;;5035184;28;20471;-46
2021/09/02 08:38:11;;;;;;;9.30;6.50;;;28.50;95.00;;;;;;5025846;28;20471;-50
2021/09/02 08:40:41;;;;;;;6.93;5.97;;;28.70;94.20;;;;;;5032122;28;20503;-47
2021/09/02 08:43:08;;;;;;;9.20;7.60;;;28.60;93.30;;;;;;5035184;28;20479;-46
2021/09/02 08:45:36;;;;;;;10.20;8.07;;;28.00;93.40;;;;;;5029785;28;20492;-49
2021/09/02 08:48:04;;;;;;;8.47;7.10;;;27.20;94.50;;;;;;5049204;28;20444;-51
2021/09/02 08:50:36;;;;;;;8.50;7.70;;;27.10;95.90;;;;;;5039397;28;20479;-49
2021/09/02 08:53:04;;;;;;;9.17;8.23;;;27.20;95.00;;;;;;5042322;28;20443;-46
2021/09/02 08:55:31;;;;;;;9.20;8.40;;;26.60;95.90;;;;;;5031160;28;20813;-51
2021/09/02 08:57:59;;;;;;;8.37;6.83;;;26.40;97.20;;;;;;5044375;28;20980;-47
2021/09/02 09:00:26;;;;;;;11.53;7.77;;;26.80;97.10;;;;;;5026737;28;20471;-51
2021/09/02 09:02:58;;;;;;;8.27;7.47;;;27.20;95.40;;;;;;5040521;28;20458;-47
2021/09/02 09:05:25;;;;;;;8.57;7.70;;;27.50;94.70;;;;;;5027505;28;21135;-47
2021/09/02 09:07:53;;;;;;;11.77;7.20;;;27.60;93.90;;;;;;5031510;28;20444;-50
2021/09/02 09:10:21;;;;;;;7.77;6.97;;;28.00;94.10;;;;;;5048660;28;20448;-51
2021/09/02 09:12:51;;;;;;;7.70;6.90;;;28.40;91.90;;;;;;5035256;28;20817;-51
2021/09/02 09:15:20;;;;;;;8.10;7.30;;;28.10;91.90;;;;;;5040366;28;20827;-52
2021/09/02 09:17:49;;;;;;;6.90;6.30;;;28.20;91.50;;;;;;5031634;28;20932;-49
2021/09/02 09:20:20;;;;;;;9.87;7.73;;;28.30;90.70;;;;;;5044854;28;20449;-49
2021/09/02 09:22:50;;;;;;;8.97;8.07;;;28.00;91.20;;;;;;5037343;28;20445;-45
2021/09/02 09:25:18;;;;;;;9.63;8.47;;;28.40;90.90;;;;;;5044281;28;20990;-47
2021/09/02 09:27:50;;;;;;;9.30;8.50;;;28.30;90.20;;;;;;5031075;28;20534;-46
2021/09/02 09:30:19;;;;;;;8.67;7.80;;;28.30;89.90;;;;;;5046141;28;20506;-47
2021/09/02 09:32:48;;;;;;;12.43;8.47;;;28.20;90.50;;;;;;5029898;28;20455;-47
2021/09/02 09:35:18;;;;;;;9.77;8.63;;;28.30;90.40;;;;;;5039046;28;20531;-50
2021/09/02 09:37:46;;;;;;;11.00;8.87;;;28.60;89.30;;;;;;5031424;28;20437;-48
2021/09/02 09:40:23;;;;;;;7.50;6.80;;;28.80;88.40;;;;;;5040262;28;20441;-47
2021/09/02 09:43:13;;;;;;;6.40;5.80;;;28.60;88.40;;;;;;5039371;28;20785;-46
2021/09/02 09:45:45;;;;;;;9.97;6.10;;;29.00;87.50;;;;;;5030807;28;20481;-45
2021/09/02 09:48:36;;;;;;;8.43;7.03;;;28.80;84.90;;;;;;5047008;28;20478;-48
2021/09/02 09:51:17;;;;;;;6.30;5.70;;;28.10;86.80;;;;;;5047997;28;20433;-46
2021/09/02 09:53:47;;;;;;;6.73;6.13;;;28.00;88.60;;;;;;5027707;28;20528;-45
2021/09/02 09:56:18;;;;;;;6.53;5.93;;;28.10;88.00;;;;;;5033422;28;20453;-45
2021/09/02 09:58:45;;;;;;;7.47;5.80;;;28.30;90.00;;;;;;5048303;28;20428;-48
2021/09/02 10:01:13;;;;;;;7.40;6.80;;;28.80;87.70;;;;;;5033274;28;20760;-44
2021/09/02 10:03:41;;;;;;;10.20;6.27;;;29.10;85.00;;;;;;5042786;28;20555;-48
2021/09/02 10:06:09;;;;;;;10.87;6.23;;;29.40;85.70;;;;;;5031651;28;20544;-46
2021/09/02 10:08:37;;;;;;;6.67;5.87;;;29.40;83.60;;;;;;5037355;28;20445;-45
2021/09/02 10:11:06;;;;;;;7.10;6.40;;;29.30;84.70;;;;;;5040004;28;20444;-49
2021/09/02 10:13:34;;;;;;;10.80;6.70;;;29.20;83.50;;;;;;5029107;28;20445;-48
2021/09/02 10:16:02;;;;;;;8.73;7.47;;;29.20;84.20;;;;;;5040288;28;20468;-46
2021/09/02 10:18:30;;;;;;;8.43;6.77;;;29.20;83.30;;;;;;5025735;28;20445;-50
2021/09/02 10:21:02;;;;;;;6.60;6.00;;;29.10;84.40;;;;;;5026206;28;20802;-48
2021/09/02 10:23:29;;;;;;;13.83;6.07;;;28.80;84.40;;;;;;5041905;28;20498;-51
2021/09/02 10:25:56;;;;;;;7.03;6.43;;;28.50;86.20;;;;;;5034264;28;20472;-47
2021/09/02 10:28:30;;;;;;;6.97;6.30;;;28.40;86.50;;;;;;5028581;28;20515;-50
2021/09/02 10:31:00;;;;;;;24.87;12.70;;;28.20;86.50;;;;;;5027505;28;20502;-48
2021/09/02 10:33:40;;;;;;;21.13;10.20;;;28.10;87.60;;;;;;5027197;28;20925;-46
2021/09/02 10:36:40;;;;;;;29.50;14.60;;;28.10;88.80;;;;;;5026902;28;20449;-47
2021/09/02 10:39:07;;;;;;;14.57;8.60;;;27.80;88.00;;;;;;5026534;28;20473;-49
2021/09/02 10:41:49;;;;;;;14.77;11.40;;;27.60;88.60;;;;;;5027015;28;20453;-49
2021/09/02 10:44:21;;;;;;;17.83;9.33;;;27.30;89.50;;;;;;5027944;28;20441;-50
2021/09/02 10:46:53;;;;;;;16.00;9.50;;;27.10;90.80;;;;;;5027230;28;20504;-49
2021/09/02 10:49:24;;;;;;;13.20;8.80;;;26.70;90.90;;;;;;5027310;28;20468;-46
2021/09/02 10:51:52;;;;;;;11.20;9.80;;;26.50;92.30;;;;;;5027909;28;20445;-48
2021/09/02 10:54:24;;;;;;;10.73;9.20;;;26.30;92.60;;;;;;5028505;28;21071;-47
2021/09/02 10:56:54;;;;;;;11.63;8.60;;;26.20;93.40;;;;;;5027328;28;20450;-51
2021/09/02 10:59:48;;;;;;;11.77;10.27;;;26.20;93.70;;;;;;5027533;28;20527;-48
2021/09/02 11:02:42;;;;;;;9.70;8.70;;;26.00;93.50;;;;;;5027744;28;20565;-45
2021/09/02 11:05:11;;;;;;;10.53;8.30;;;25.80;94.30;;;;;;5027680;28;20536;-45
2021/09/02 11:07:42;;;;;;;11.70;8.80;;;25.60;95.10;;;;;;5026476;28;20496;-47
2021/09/02 11:10:15;;;;;;;12.13;9.23;;;25.20;96.50;;;;;;5042039;28;20488;-46
2021/09/02 11:12:42;;;;;;;9.13;8.00;;;25.10;96.90;;;;;;5031025;28;20464;-46
2021/09/02 11:15:11;;;;;;;9.73;8.10;;;24.90;97.60;;;;;;5034061;28;20440;-45
2021/09/02 11:17:38;;;;;;;16.53;13.30;;;24.70;97.90;;;;;;5031699;28;20445;-50
2021/09/02 11:20:21;;;;;;;12.90;9.53;;;24.50;99.90;;;;;;5033638;28;20448;-50
2021/09/02 11:22:48;;;;;;;11.17;6.90;;;24.30;99.70;;;;;;5032707;28;20464;-45
2021/09/02 11:25:15;;;;;;;10.37;8.37;;;24.10;99.90;;;;;;5030526;28;20439;-49
2021/09/02 11:27:42;;;;;;;10.73;8.90;;;24.00;99.90;;;;;;5027270;28;20448;-47
2021/09/02 11:30:17;;;;;;;10.67;7.93;;;23.90;99.90;;;;;;5049288;28;20440;-45
2021/09/02 11:32:51;;;;;;;11.23;7.77;;;23.90;99.90;;;;;;5048883;28;20443;-46
2021/09/02 11:35:27;;;;;;;11.03;8.80;;;23.90;99.90;;;;;;5039636;28;20468;-48
2021/09/02 11:37:54;;;;;;;11.57;9.10;;;23.80;99.90;;;;;;5035619;28;20443;-48
2021/09/02 11:40:23;;;;;;;11.67;9.43;;;23.70;99.90;;;;;;5047830;28;20468;-49
2021/09/02 11:42:51;;;;;;;9.53;7.53;;;23.50;99.90;;;;;;5026720;28;20450;-50
2021/09/02 11:45:18;;;;;;;14.50;7.70;;;23.30;99.90;;;;;;5038629;28;20456;-47
2021/09/02 11:47:46;;;;;;;11.50;7.80;;;23.20;99.90;;;;;;5039015;28;20456;-46
2021/09/02 11:50:14;;;;;;;10.10;7.23;;;23.10;99.90;;;;;;5023492;28;20499;-49
2021/09/02 11:52:44;;;;;;;13.80;9.60;;;23.00;99.90;;;;;;5035448;28;20477;-47
2021/09/02 11:55:16;;;;;;;10.47;7.27;;;23.00;99.90;;;;;;5028647;28;20448;-46
2021/09/02 11:57:43;;;;;;;9.03;8.13;;;22.70;99.90;;;;;;5025904;28;20452;-49
2021/09/02 12:00:19;;;;;;;10.90;7.97;;;22.60;99.90;;;;;;5038893;28;20475;-46
2021/09/02 12:02:50;;;;;;;12.07;8.40;;;22.50;99.90;;;;;;5029420;28;20560;-49
2021/09/02 12:05:20;;;;;;;8.23;7.27;;;22.40;99.90;;;;;;5030040;28;20505;-48
2021/09/02 12:07:51;;;;;;;9.53;6.93;;;22.40;99.90;;;;;;5029838;28;20441;-47
2021/09/02 12:10:21;;;;;;;11.60;9.03;;;22.30;99.90;;;;;;5026650;28;20467;-46
2021/09/02 12:12:49;;;;;;;10.87;7.93;;;22.00;99.90;;;;;;5039196;28;20449;-48
2021/09/02 12:15:27;;;;;;;11.40;8.30;;;22.10;99.90;;;;;;5044472;28;20466;-51
2021/09/02 12:18:08;;;;;;;11.37;8.00;;;22.20;99.90;;;;;;5046469;28;20933;-46
2021/09/02 12:20:36;;;;;;;13.77;6.70;;;22.20;99.90;;;;;;5034500;28;20935;-48
2021/09/02 12:23:24;;;;;;;8.67;6.77;;;22.30;99.90;;;;;;5028901;28;20449;-46
2021/09/02 12:25:58;;;;;;;10.20;7.37;;;22.40;99.90;;;;;;5028218;28;20488;-47
2021/09/02 12:28:36;;;;;;;10.73;7.73;;;22.50;99.90;;;;;;5039807;28;20446;-49
2021/09/02 12:31:17;;;;;;;12.67;8.97;;;22.50;99.90;;;;;;5040476;28;20451;-46
2021/09/02 12:34:07;;;;;;;8.50;7.00;;;22.50;99.90;;;;;;5040677;28;20456;-46
2021/09/02 12:36:35;;;;;;;13.77;7.80;;;22.40;99.90;;;;;;5040537;28;20504;-47
2021/09/02 12:39:15;;;;;;;14.33;8.87;;;22.40;99.90;;;;;;5046535;28;20490;-46
2021/09/02 12:41:43;;;;;;;9.70;7.40;;;22.40;99.90;;;;;;5049576;28;20432;-46
2021/09/02 12:44:12;;;;;;;12.43;7.37;;;22.40;99.90;;;;;;5049257;28;20436;-49
2021/09/02 12:47:01;;;;;;;9.60;8.40;;;22.50;99.90;;;;;;5049579;28;20498;-46
2021/09/02 12:49:29;;;;;;;11.17;9.93;;;22.60;99.90;;;;;;5050198;28;20448;-46